Time;durP1;ratioP1;P1;durP2;ratioP2;P2;SDS_P1;SDS_P2;PMS_P1;PMS_P2;Temp;Humidity;BMP_temperature;BMP_pressure;BME280_temperature;BME280_humidity;BME280_pressure;Samples;Min_cycle;Max_cycle;Signal;HPM_P1;HPM_P2
2023/10/14 00:01:27;;;;;;;1.80;0.90;;;23.50;58.00;;;;;;5014433;28;20329;-56
2023/10/14 00:03:54;;;;;;;2.33;0.80;;;23.40;57.90;;;;;;5014661;28;20105;-56
2023/10/14 00:06:20;;;;;;;1.25;0.80;;;23.40;57.90;;;;;;5013750;28;20037;-55
2023/10/14 00:08:58;;;;;;;2.22;0.90;;;23.40;57.90;;;;;;5015369;28;20087;-55
2023/10/14 00:11:34;;;;;;;1.10;0.80;;;23.40;57.90;;;;;;5010639;28;20030;-55
2023/10/14 00:14:00;;;;;;;1.65;0.90;;;23.40;57.90;;;;;;5015960;28;20091;-58
2023/10/14 00:18:55;;;;;;;1.60;0.70;;;23.40;57.80;;;;;;5012469;28;20049;-57
2023/10/14 00:21:25;;;;;;;1.45;0.93;;;23.40;57.80;;;;;;5014242;28;20064;-55
2023/10/14 00:23:58;;;;;;;1.25;0.60;;;23.40;57.80;;;;;;5011116;28;20456;-53
2023/10/14 00:26:25;;;;;;;1.17;0.80;;;23.40;57.80;;;;;;5012300;28;20123;-56
2023/10/14 00:28:54;;;;;;;1.77;0.80;;;23.40;57.80;;;;;;4997299;28;20445;-55
2023/10/14 00:31:25;;;;;;;1.05;0.60;;;23.30;57.70;;;;;;4996706;28;20022;-54
2023/10/14 00:33:54;;;;;;;1.70;0.80;;;23.30;57.70;;;;;;5014617;28;20493;-58
2023/10/14 00:36:21;;;;;;;4.60;0.60;;;23.30;57.70;;;;;;4997220;28;20049;-55
2023/10/14 00:38:55;;;;;;;1.60;0.70;;;23.30;57.70;;;;;;5014676;28;20449;-54
2023/10/14 00:41:22;;;;;;;;;;;23.30;57.70;;;;;;4996787;28;20034;-55
2023/10/14 00:43:48;;;;;;;1.70;0.70;;;23.30;57.70;;;;;;5014085;28;20040;-57
2023/10/14 00:46:16;;;;;;;2.00;0.90;;;23.30;57.70;;;;;;5014542;28;20053;-57
2023/10/14 00:48:46;;;;;;;1.38;0.52;;;23.30;57.70;;;;;;5014127;28;20400;-55
2023/10/14 00:51:14;;;;;;;1.45;0.90;;;23.30;57.70;;;;;;5011515;28;20329;-53
2023/10/14 00:53:51;;;;;;;1.30;0.65;;;23.30;57.70;;;;;;5014000;28;20192;-55
2023/10/14 00:56:19;;;;;;;1.38;0.70;;;23.30;57.70;;;;;;4996178;28;20040;-53
2023/10/14 00:58:50;;;;;;;1.80;0.65;;;23.30;57.60;;;;;;5014103;28;20041;-56
2023/10/14 01:01:17;;;;;;;1.45;0.90;;;23.30;57.60;;;;;;5013600;28;20041;-54
2023/10/14 01:03:48;;;;;;;2.35;0.90;;;23.30;57.60;;;;;;5012802;28;20044;-56
2023/10/14 01:08:50;;;;;;;1.55;0.60;;;23.20;57.40;;;;;;5013179;28;20030;-56
2023/10/14 01:11:18;;;;;;;1.08;0.70;;;23.20;57.30;;;;;;5013086;28;20029;-55
2023/10/14 01:13:45;;;;;;;1.90;0.80;;;23.20;57.30;;;;;;5008301;28;20030;-55
2023/10/14 01:16:12;;;;;;;1.02;0.85;;;23.20;57.20;;;;;;5012156;28;20061;-56
2023/10/14 01:18:44;;;;;;;1.25;0.60;;;23.20;57.10;;;;;;4998060;28;20034;-53
2023/10/14 01:21:10;;;;;;;1.42;0.50;;;23.20;57.00;;;;;;4995711;28;20086;-54
2023/10/14 01:23:37;;;;;;;1.20;0.70;;;23.20;57.00;;;;;;5012696;28;20095;-54
2023/10/14 01:26:04;;;;;;;1.08;0.73;;;23.20;56.90;;;;;;4996449;28;20528;-56
2023/10/14 01:28:31;;;;;;;1.13;0.57;;;23.20;56.80;;;;;;5013224;28;20452;-55
2023/10/14 01:32:05;;;;;;;1.27;0.70;;;23.20;56.80;;;;;;5013712;28;20040;-55
2023/10/14 01:33:55;;;;;;;2.08;0.60;;;23.20;56.80;;;;;;4992107;28;20046;-55
2023/10/14 01:36:27;;;;;;;1.67;0.77;;;23.20;56.70;;;;;;5012511;28;20037;-56
2023/10/14 01:38:59;;;;;;;1.38;0.75;;;23.20;56.60;;;;;;4996026;28;20448;-57
2023/10/14 01:41:29;;;;;;;1.40;0.80;;;23.20;56.50;;;;;;5013903;28;20036;-56
2023/10/14 01:43:58;;;;;;;1.17;0.60;;;23.10;56.40;;;;;;4992875;28;20125;-53
2023/10/14 01:46:27;;;;;;;3.03;0.80;;;23.10;56.30;;;;;;5013454;28;20026;-57
2023/10/14 01:48:55;;;;;;;1.45;0.60;;;23.10;56.30;;;;;;5012602;28;20045;-53
2023/10/14 01:51:21;;;;;;;1.52;0.70;;;23.10;56.20;;;;;;5012847;28;20456;-56
2023/10/14 01:53:47;;;;;;;1.50;0.70;;;23.10;56.10;;;;;;5013148;28;20033;-55
2023/10/14 01:56:13;;;;;;;1.23;0.63;;;23.20;56.20;;;;;;4994380;28;20436;-56
2023/10/14 01:58:40;;;;;;;1.20;0.68;;;23.10;56.00;;;;;;5012116;28;20103;-55
2023/10/14 02:03:44;;;;;;;1.48;0.50;;;23.10;55.80;;;;;;5012480;28;20056;-58
2023/10/14 02:06:18;;;;;;;1.98;0.70;;;23.10;55.80;;;;;;5012492;28;20067;-56
2023/10/14 02:08:48;;;;;;;;;;;23.10;55.70;;;;;;4994513;28;20033;-55
2023/10/14 02:11:20;;;;;;;1.90;0.68;;;23.10;56.30;;;;;;4993954;28;19949;-54
2023/10/14 02:13:50;;;;;;;1.00;0.50;;;23.10;55.60;;;;;;5012535;28;20040;-55
2023/10/14 02:16:40;;;;;;;0.73;0.60;;;23.10;55.60;;;;;;5009566;28;20121;-55
2023/10/14 02:22:00;;;;;;;2.05;0.77;;;23.00;55.40;;;;;;5003884;28;20069;-55
2023/10/14 02:24:27;;;;;;;1.75;0.65;;;23.00;55.40;;;;;;5012464;28;20433;-53
2023/10/14 02:26:56;;;;;;;1.08;0.77;;;23.00;55.30;;;;;;5011940;28;20091;-57
2023/10/14 02:29:24;;;;;;;2.80;0.73;;;23.00;55.30;;;;;;5011871;28;20034;-53
2023/10/14 02:31:51;;;;;;;1.70;0.70;;;23.00;55.30;;;;;;5003443;28;20030;-57
2023/10/14 02:34:18;;;;;;;2.25;0.88;;;23.00;55.20;;;;;;5011970;28;20043;-56
2023/10/14 02:36:50;;;;;;;2.78;0.70;;;23.00;55.10;;;;;;5002751;28;20058;-53
2023/10/14 02:39:17;;;;;;;1.70;0.68;;;23.00;55.10;;;;;;5012916;28;20064;-53
2023/10/14 02:41:58;;;;;;;2.45;1.00;;;23.00;55.00;;;;;;5009278;28;20702;-55
2023/10/14 02:44:31;;;;;;;3.42;1.05;;;23.00;55.00;;;;;;5011768;28;20065;-54
2023/10/14 02:47:05;;;;;;;1.15;0.57;;;23.00;55.00;;;;;;4995113;28;20040;-56
2023/10/14 02:49:38;;;;;;;1.80;0.70;;;23.00;54.90;;;;;;5009065;28;20335;-54
2023/10/14 02:52:10;;;;;;;1.67;0.80;;;23.00;54.90;;;;;;5011570;28;20037;-55
2023/10/14 02:54:39;;;;;;;2.30;0.80;;;23.00;54.80;;;;;;5009632;28;20026;-56
2023/10/14 03:07:29;;;;;;;2.00;0.88;;;22.90;54.50;;;;;;5007750;28;20030;-53
2023/10/14 03:12:42;;;;;;;2.55;0.75;;;22.90;54.40;;;;;;5011846;28;20325;-55
2023/10/14 03:15:22;;;;;;;2.00;0.85;;;22.90;54.30;;;;;;5010695;28;20038;-55
2023/10/14 03:18:04;;;;;;;1.67;0.90;;;22.90;54.30;;;;;;5007654;28;20034;-58
2023/10/14 03:20:34;;;;;;;1.65;0.68;;;22.90;54.20;;;;;;5011555;28;20081;-57
2023/10/14 03:23:19;;;;;;;2.42;0.90;;;22.90;54.10;;;;;;5011099;28;20069;-55
2023/10/14 03:25:49;;;;;;;;;;;22.90;54.10;;;;;;4993839;28;20471;-51
2023/10/14 03:28:19;;;;;;;1.58;0.70;;;22.90;54.10;;;;;;5010788;28;19920;-53
2023/10/14 03:30:47;;;;;;;1.73;0.82;;;22.90;54.10;;;;;;5011491;28;20113;-55
2023/10/14 03:33:20;;;;;;;2.13;0.85;;;22.80;53.90;;;;;;5011338;28;20105;-53
2023/10/14 03:35:57;;;;;;;1.08;0.60;;;22.80;53.80;;;;;;5010703;28;20180;-56
2023/10/14 03:41:21;;;;;;;1.40;0.60;;;22.80;53.60;;;;;;5010070;28;20403;-55
2023/10/14 03:43:54;;;;;;;3.38;0.93;;;22.80;53.50;;;;;;5010859;28;20064;-57
2023/10/14 03:46:29;;;;;;;1.95;0.82;;;22.80;53.50;;;;;;5011512;28;20029;-55
2023/10/14 03:48:55;;;;;;;1.98;1.00;;;22.80;53.40;;;;;;5008863;28;20476;-59
2023/10/14 03:51:25;;;;;;;2.88;1.00;;;22.80;53.40;;;;;;5009191;28;20076;-56
2023/10/14 03:53:58;;;;;;;2.40;1.00;;;22.80;53.90;;;;;;5010288;28;20436;-52
2023/10/14 03:56:29;;;;;;;1.60;0.70;;;22.80;53.20;;;;;;5008184;28;20057;-58
2023/10/14 03:58:57;;;;;;;2.75;1.00;;;22.80;53.10;;;;;;5010825;28;20029;-54
2023/10/14 04:01:29;;;;;;;1.63;0.70;;;22.80;53.10;;;;;;5011963;28;20045;-57
2023/10/14 04:03:55;;;;;;;1.90;0.70;;;22.80;53.00;;;;;;4997960;28;20037;-56
2023/10/14 04:06:21;;;;;;;2.45;0.80;;;22.80;52.90;;;;;;5013940;28;20458;-56
2023/10/14 04:08:48;;;;;;;2.22;0.85;;;22.80;52.90;;;;;;5013664;28;20022;-57
2023/10/14 04:11:35;;;;;;;2.60;0.90;;;22.70;52.70;;;;;;5013004;28;20386;-57
2023/10/14 04:14:03;;;;;;;3.50;0.90;;;22.80;52.70;;;;;;5014633;28;20322;-56
2023/10/14 04:17:09;;;;;;;1.77;0.68;;;22.70;52.60;;;;;;5014272;28;20476;-56
2023/10/14 04:19:44;;;;;;;1.38;0.75;;;22.70;53.10;;;;;;5014139;28;20042;-55
2023/10/14 04:22:31;;;;;;;2.75;1.08;;;22.70;52.50;;;;;;5015509;28;20056;-54
2023/10/14 04:27:45;;;;;;;2.10;0.60;;;22.70;52.40;;;;;;5016498;28;20030;-53
2023/10/14 04:30:20;;;;;;;2.70;0.73;;;22.70;52.40;;;;;;5014998;28;20033;-53
2023/10/14 04:35:23;;;;;;;1.23;0.70;;;22.70;52.30;;;;;;5013607;28;20025;-56
2023/10/14 04:37:53;;;;;;;2.50;0.98;;;22.70;52.30;;;;;;5013807;28;20028;-56
2023/10/14 04:43:11;;;;;;;2.10;0.70;;;22.70;52.20;;;;;;5013261;28;20487;-57
2023/10/14 04:45:45;;;;;;;1.63;0.90;;;22.70;52.20;;;;;;5012996;28;20030;-56
2023/10/14 04:48:14;;;;;;;;;;;22.70;52.10;;;;;;5012013;28;20033;-55
2023/10/14 04:50:40;;;;;;;3.08;0.85;;;22.60;52.10;;;;;;5014010;28;19928;-55
2023/10/14 04:53:06;;;;;;;2.40;0.90;;;22.60;52.10;;;;;;5014024;28;20033;-53
2023/10/14 04:55:42;;;;;;;2.80;0.95;;;22.70;52.00;;;;;;5013618;28;20445;-53
2023/10/14 04:58:12;;;;;;;2.33;0.90;;;22.60;52.00;;;;;;5014326;28;20061;-54
2023/10/14 05:00:47;;;;;;;2.35;0.98;;;22.60;51.90;;;;;;5012110;28;20092;-56
2023/10/14 05:03:14;;;;;;;2.25;0.70;;;22.60;51.80;;;;;;5013836;28;20072;-58
2023/10/14 05:05:52;;;;;;;3.00;0.77;;;22.60;51.80;;;;;;5013612;28;20014;-55
2023/10/14 05:08:23;;;;;;;3.15;1.00;;;22.60;51.80;;;;;;5011218;28;20353;-54
2023/10/14 05:10:53;;;;;;;1.75;0.75;;;22.60;51.80;;;;;;5013727;28;20348;-52
2023/10/14 05:13:25;;;;;;;2.58;0.90;;;22.60;51.70;;;;;;5013747;28;20029;-54
2023/10/14 05:16:03;;;;;;;2.10;0.85;;;22.60;51.70;;;;;;4995903;28;20060;-53
2023/10/14 05:18:29;;;;;;;3.35;0.90;;;22.60;51.70;;;;;;5011346;28;20038;-52
2023/10/14 05:21:02;;;;;;;3.88;0.75;;;22.60;51.60;;;;;;5013496;28;20026;-53
2023/10/14 05:23:31;;;;;;;2.17;0.87;;;22.60;51.60;;;;;;5013167;28;20045;-54
2023/10/14 05:26:06;;;;;;;2.42;0.80;;;22.50;51.60;;;;;;5013800;28;20517;-55
2023/10/14 05:28:36;;;;;;;1.63;0.70;;;22.50;51.50;;;;;;5011295;28;20413;-54
2023/10/14 05:31:08;;;;;;;2.03;0.77;;;22.60;51.50;;;;;;5011826;28;20395;-56
2023/10/14 05:33:37;;;;;;;1.60;0.80;;;22.50;51.40;;;;;;5012866;28;20372;-54
2023/10/14 05:36:07;;;;;;;2.65;0.80;;;22.50;51.40;;;;;;5012871;28;20017;-54
2023/10/14 05:38:32;;;;;;;1.63;0.65;;;22.50;51.30;;;;;;4995578;28;20048;-55
2023/10/14 05:40:59;;;;;;;2.58;0.80;;;22.50;51.30;;;;;;5012477;28;20108;-55
2023/10/14 05:43:25;;;;;;;2.58;1.10;;;22.50;51.30;;;;;;5013015;28;20053;-56
2023/10/14 05:45:52;;;;;;;2.05;0.80;;;22.50;51.30;;;;;;5013025;28;20073;-54
2023/10/14 05:48:18;;;;;;;1.52;0.60;;;22.50;51.20;;;;;;5012420;28;20022;-52
2023/10/14 05:50:44;;;;;;;1.98;0.80;;;22.50;51.20;;;;;;5012594;28;20481;-56
2023/10/14 05:53:11;;;;;;;3.08;0.90;;;22.50;51.20;;;;;;5012266;28;20097;-56
2023/10/14 05:55:39;;;;;;;1.38;0.80;;;22.50;51.10;;;;;;5008933;28;20064;-55
2023/10/14 05:58:07;;;;;;;1.42;0.70;;;22.50;51.10;;;;;;5010268;28;20476;-55
2023/10/14 06:00:34;;;;;;;2.13;0.80;;;22.50;51.10;;;;;;5011127;28;20030;-55
2023/10/14 06:03:00;;;;;;;1.95;0.70;;;22.50;51.00;;;;;;5012730;28;20037;-54
2023/10/14 06:05:31;;;;;;;2.80;0.90;;;22.50;51.00;;;;;;5012459;28;20077;-56
2023/10/14 06:08:05;;;;;;;2.63;0.73;;;22.40;50.90;;;;;;5009493;28;20407;-57
2023/10/14 06:10:36;;;;;;;2.97;0.85;;;22.50;51.00;;;;;;5010769;28;20030;-53
2023/10/14 06:13:05;;;;;;;2.28;0.90;;;22.50;51.10;;;;;;5011859;28;20377;-56
2023/10/14 06:15:36;;;;;;;2.45;0.82;;;22.50;51.00;;;;;;5011080;28;20108;-56
2023/10/14 06:18:04;;;;;;;3.03;0.93;;;22.50;51.00;;;;;;5008310;28;20449;-54
2023/10/14 06:20:32;;;;;;;2.38;0.68;;;22.50;51.00;;;;;;5010595;28;20053;-54
2023/10/14 06:22:59;;;;;;;2.13;0.95;;;22.40;50.90;;;;;;5011834;28;20128;-54
2023/10/14 06:25:26;;;;;;;2.15;0.93;;;22.50;51.00;;;;;;5011404;28;20105;-55
2023/10/14 06:27:53;;;;;;;2.08;0.88;;;22.40;50.90;;;;;;5010255;28;20069;-53
2023/10/14 06:30:20;;;;;;;2.35;0.77;;;22.40;50.90;;;;;;5011439;28;20057;-54
2023/10/14 06:32:52;;;;;;;2.40;0.90;;;22.40;50.90;;;;;;5008797;28;20071;-54
2023/10/14 06:35:19;;;;;;;2.65;0.90;;;22.40;50.90;;;;;;5013826;28;20038;-53
2023/10/14 06:37:49;;;;;;;2.80;0.98;;;22.40;50.90;;;;;;5011599;28;20045;-55
2023/10/14 06:40:18;;;;;;;2.97;1.00;;;22.40;50.90;;;;;;5010276;28;20030;-58
2023/10/14 06:42:49;;;;;;;3.83;1.20;;;22.40;50.90;;;;;;5011103;28;20139;-54
2023/10/14 06:45:18;;;;;;;3.33;1.10;;;22.40;50.90;;;;;;5011331;28;20352;-54
2023/10/14 06:47:50;;;;;;;2.35;0.80;;;22.40;51.00;;;;;;5011254;28;20030;-55
2023/10/14 06:50:23;;;;;;;2.22;1.02;;;22.40;50.90;;;;;;5011001;28;20029;-55
2023/10/14 06:52:53;;;;;;;2.53;0.80;;;22.40;51.00;;;;;;5011795;28;20094;-55
2023/10/14 06:55:23;;;;;;;2.75;0.98;;;22.40;50.90;;;;;;5008327;28;20087;-55
2023/10/14 06:57:53;;;;;;;3.33;1.35;;;22.40;50.90;;;;;;5011476;28;20034;-55
2023/10/14 07:00:26;;;;;;;2.72;1.40;;;22.40;50.90;;;;;;5008297;28;20052;-54
2023/10/14 07:02:53;;;;;;;3.78;1.38;;;22.40;50.80;;;;;;5010637;28;20050;-55
2023/10/14 07:05:23;;;;;;;2.70;1.00;;;22.40;50.80;;;;;;4993339;28;20057;-55
2023/10/14 07:07:49;;;;;;;2.70;0.90;;;22.40;50.80;;;;;;5008766;28;20436;-53
2023/10/14 07:10:16;;;;;;;2.97;1.10;;;22.40;50.80;;;;;;5011730;28;20033;-57
2023/10/14 07:12:42;;;;;;;3.17;1.02;;;22.40;50.80;;;;;;5009678;28;20105;-56
2023/10/14 07:15:14;;;;;;;3.55;1.00;;;22.40;50.90;;;;;;5011161;28;20061;-58
2023/10/14 07:17:43;;;;;;;3.85;1.27;;;22.40;51.00;;;;;;4993114;28;20411;-57
2023/10/14 07:20:12;;;;;;;4.15;1.20;;;22.40;51.10;;;;;;4991396;28;20065;-54
2023/10/14 07:22:42;;;;;;;2.13;0.80;;;22.40;51.10;;;;;;5008768;28;21108;-55
2023/10/14 07:25:11;;;;;;;4.78;1.65;;;22.40;51.10;;;;;;5010506;28;20037;-56
2023/10/14 07:27:38;;;;;;;3.53;1.08;;;22.40;51.10;;;;;;5010579;28;20053;-54
2023/10/14 07:30:15;;;;;;;5.45;1.77;;;22.40;51.00;;;;;;5009479;28;20021;-53
2023/10/14 07:32:45;;;;;;;5.38;1.17;;;22.40;51.00;;;;;;5010460;28;20113;-52
2023/10/14 07:35:13;;;;;;;5.75;1.23;;;22.40;50.90;;;;;;5014088;28;20030;-53
2023/10/14 07:37:45;;;;;;;3.47;1.38;;;22.40;50.90;;;;;;5020330;28;20117;-54
2023/10/14 07:40:24;;;;;;;4.60;1.50;;;22.40;50.80;;;;;;5016043;28;20105;-59
2023/10/14 07:42:56;;;;;;;4.43;1.40;;;22.40;50.70;;;;;;5014042;28;20495;-59
2023/10/14 07:45:28;;;;;;;6.95;1.58;;;22.40;50.80;;;;;;5013712;28;20102;-55
2023/10/14 07:47:56;;;;;;;3.67;1.60;;;22.40;51.00;;;;;;5016595;28;20084;-52
2023/10/14 07:50:23;;;;;;;3.83;1.38;;;22.40;50.90;;;;;;5014866;28;20026;-57
2023/10/14 07:52:51;;;;;;;5.53;1.90;;;22.50;50.70;;;;;;4998564;28;20026;-58
2023/10/14 07:55:22;;;;;;;4.53;1.75;;;22.50;50.60;;;;;;5016095;28;20049;-54
2023/10/14 07:57:49;;;;;;;3.75;1.70;;;22.50;50.50;;;;;;5017257;28;20026;-54
2023/10/14 08:00:15;;;;;;;4.97;1.75;;;22.50;50.40;;;;;;5010864;28;20060;-55
2023/10/14 08:02:42;;;;;;;5.03;1.30;;;22.50;50.20;;;;;;5014846;28;20069;-54
2023/10/14 08:05:09;;;;;;;3.45;1.40;;;22.50;50.10;;;;;;5015384;28;20061;-56
2023/10/14 08:07:44;;;;;;;4.57;1.60;;;22.50;50.10;;;;;;5013729;28;20353;-53
2023/10/14 08:10:17;;;;;;;3.75;1.48;;;22.50;50.00;;;;;;5015872;28;20030;-54
2023/10/14 08:12:50;;;;;;;4.03;1.48;;;22.50;49.90;;;;;;5015059;28;20046;-55
2023/10/14 08:15:19;;;;;;;4.97;1.80;;;22.50;49.80;;;;;;5015562;28;20061;-56
2023/10/14 08:17:45;;;;;;;5.22;1.65;;;22.50;49.70;;;;;;5013979;28;20034;-54
2023/10/14 08:20:18;;;;;;;3.13;1.33;;;22.50;49.60;;;;;;5013277;28;20076;-55
2023/10/14 08:22:47;;;;;;;4.00;1.45;;;22.50;49.50;;;;;;5013183;28;20061;-50
2023/10/14 08:25:15;;;;;;;3.85;1.30;;;22.50;49.40;;;;;;5015706;28;20030;-54
2023/10/14 08:27:41;;;;;;;3.63;1.27;;;22.50;49.40;;;;;;5015064;28;20404;-56
2023/10/14 08:30:11;;;;;;;5.40;1.40;;;22.50;49.30;;;;;;5010561;28;20026;-56
2023/10/14 08:32:40;;;;;;;4.63;1.40;;;22.50;49.20;;;;;;5013470;28;20041;-55
2023/10/14 08:35:15;;;;;;;3.88;1.42;;;22.50;49.10;;;;;;5016878;28;20041;-52
2023/10/14 08:37:49;;;;;;;3.75;1.60;;;22.50;49.10;;;;;;5014022;28;20034;-55
2023/10/14 08:40:20;;;;;;;5.20;1.33;;;22.50;49.00;;;;;;5015396;28;20057;-52
2023/10/14 08:43:05;;;;;;;3.63;1.45;;;22.50;49.00;;;;;;5013208;28;20088;-54
2023/10/14 08:45:47;;;;;;;6.03;1.30;;;22.50;48.80;;;;;;5009053;28;20022;-51
2023/10/14 08:48:18;;;;;;;3.55;1.30;;;22.50;48.80;;;;;;5010277;28;20057;-50
2023/10/14 08:50:47;;;;;;;4.13;1.48;;;22.50;48.80;;;;;;5010965;28;20061;-56
2023/10/14 08:53:13;;;;;;;4.53;1.55;;;22.50;48.80;;;;;;5009732;28;20388;-52
2023/10/14 08:55:40;;;;;;;2.55;1.15;;;22.50;48.90;;;;;;5010650;28;20065;-52
2023/10/14 08:58:12;;;;;;;4.72;1.65;;;22.50;48.80;;;;;;5009367;28;20030;-55
2023/10/14 09:00:38;;;;;;;3.35;1.30;;;22.50;48.80;;;;;;5011684;28;20437;-53
2023/10/14 09:03:06;;;;;;;3.83;1.17;;;22.50;48.80;;;;;;5009186;28;20040;-58
2023/10/14 09:05:34;;;;;;;4.97;1.48;;;22.50;48.80;;;;;;5009575;28;20447;-51
2023/10/14 09:08:00;;;;;;;4.05;1.48;;;22.50;48.90;;;;;;5008526;28;20033;-54
2023/10/14 09:10:26;;;;;;;3.65;1.40;;;22.50;48.80;;;;;;5011025;28;20025;-49
2023/10/14 09:12:57;;;;;;;4.05;1.67;;;22.60;48.70;;;;;;5010543;28;20096;-51
2023/10/14 09:15:28;;;;;;;4.32;1.40;;;22.60;48.50;;;;;;5009397;28;20038;-54
2023/10/14 09:17:55;;;;;;;3.53;1.13;;;22.70;48.40;;;;;;5012415;28;20403;-50
2023/10/14 09:20:35;;;;;;;4.85;1.75;;;22.70;48.40;;;;;;5011108;28;20589;-53
2023/10/14 09:23:11;;;;;;;6.75;1.58;;;22.70;48.30;;;;;;5010564;28;20038;-53
2023/10/14 09:25:58;;;;;;;3.88;1.40;;;22.70;48.20;;;;;;5010163;28;20502;-51
2023/10/14 09:28:35;;;;;;;3.95;1.10;;;22.80;48.20;;;;;;5010895;28;20022;-53
2023/10/14 09:31:04;;;;;;;4.88;1.40;;;22.80;48.20;;;;;;5011483;28;20030;-53
2023/10/14 09:33:34;;;;;;;4.32;1.40;;;22.80;48.10;;;;;;5010518;28;20026;-55
2023/10/14 09:36:18;;;;;;;3.83;1.40;;;22.70;48.10;;;;;;5009370;28;20030;-54
2023/10/14 09:38:48;;;;;;;3.50;1.10;;;22.70;48.00;;;;;;5011613;28;20025;-50
2023/10/14 09:41:15;;;;;;;4.70;1.38;;;22.70;48.00;;;;;;5010510;28;20384;-51
2023/10/14 09:43:48;;;;;;;4.20;1.50;;;22.70;48.00;;;;;;5010283;28;20033;-53
2023/10/14 09:46:17;;;;;;;3.30;1.17;;;22.70;48.00;;;;;;5010232;28;20037;-52
2023/10/14 09:48:46;;;;;;;3.38;1.20;;;22.70;47.90;;;;;;5010712;28;20034;-51
2023/10/14 09:51:15;;;;;;;3.13;1.30;;;22.70;47.90;;;;;;5010504;28;20030;-54
2023/10/14 09:53:44;;;;;;;2.72;1.00;;;22.70;47.80;;;;;;5010646;28;20034;-54
2023/10/14 09:56:12;;;;;;;4.40;1.20;;;22.70;47.80;;;;;;4992252;28;20076;-54
2023/10/14 09:58:43;;;;;;;2.88;1.00;;;22.70;47.70;;;;;;5011099;28;20038;-54
2023/10/14 10:01:16;;;;;;;3.63;1.35;;;22.70;47.70;;;;;;5008502;28;20037;-52
2023/10/14 10:03:50;;;;;;;4.15;1.15;;;22.70;47.60;;;;;;5008222;28;20073;-50
2023/10/14 10:06:35;;;;;;;6.20;1.20;;;22.70;47.60;;;;;;5008134;28;20121;-52
2023/10/14 10:09:04;;;;;;;4.55;1.58;;;22.70;47.80;;;;;;5011448;28;20041;-52
2023/10/14 10:11:33;;;;;;;2.88;1.20;;;22.70;47.80;;;;;;5009235;28;20036;-54
2023/10/14 10:13:59;;;;;;;3.35;1.42;;;22.70;47.80;;;;;;5008136;28;20491;-53
2023/10/14 10:16:31;;;;;;;4.60;1.58;;;22.70;48.00;;;;;;5008173;28;20054;-55
2023/10/14 10:18:59;;;;;;;3.35;1.40;;;22.70;48.30;;;;;;5009660;28;20178;-51
2023/10/14 10:21:32;;;;;;;4.60;1.55;;;22.80;48.50;;;;;;5009634;28;20084;-54
2023/10/14 10:24:09;;;;;;;4.07;1.10;;;22.80;48.30;;;;;;5010204;28;20045;-57
2023/10/14 10:26:58;;;;;;;5.45;1.20;;;22.90;48.00;;;;;;5009926;28;20109;-55
2023/10/14 10:29:25;;;;;;;3.75;1.30;;;22.90;47.60;;;;;;5013997;28;20167;-54
2023/10/14 10:32:16;;;;;;;2.72;1.27;;;22.90;47.50;;;;;;5014828;28;20448;-53
2023/10/14 10:35:04;;;;;;;2.90;1.00;;;22.90;47.20;;;;;;5014204;28;20145;-52
2023/10/14 10:37:34;;;;;;;3.20;1.10;;;22.90;46.80;;;;;;5013901;28;20064;-53
2023/10/14 10:40:10;;;;;;;3.42;1.20;;;22.90;46.60;;;;;;5013266;28;20054;-52
2023/10/14 10:42:45;;;;;;;2.42;1.08;;;22.90;46.40;;;;;;5010702;28;20077;-53
2023/10/14 10:45:22;;;;;;;2.20;1.00;;;22.90;46.20;;;;;;5011982;28;20018;-52
2023/10/14 10:47:56;;;;;;;3.53;1.10;;;22.90;46.10;;;;;;5010654;28;20034;-54
2023/10/14 10:50:49;;;;;;;2.72;0.80;;;22.90;46.00;;;;;;4991560;28;20026;-54
2023/10/14 10:53:18;;;;;;;3.40;0.95;;;22.80;45.70;;;;;;5008446;28;20035;-53
2023/10/14 10:55:48;;;;;;;3.45;0.75;;;22.80;45.60;;;;;;5010413;28;20414;-55
2023/10/14 10:58:15;;;;;;;3.58;1.10;;;22.80;45.50;;;;;;5010692;28;20035;-54
2023/10/14 11:00:45;;;;;;;2.65;1.00;;;22.80;45.40;;;;;;5012562;28;20464;-52
2023/10/14 11:03:14;;;;;;;2.88;1.00;;;22.80;45.40;;;;;;5008512;28;20049;-53
2023/10/14 11:05:45;;;;;;;2.80;0.93;;;22.80;45.40;;;;;;5014513;28;20087;-54
2023/10/14 11:08:11;;;;;;;2.25;0.73;;;22.80;45.40;;;;;;5013921;28;20030;-51
2023/10/14 11:10:42;;;;;;;4.97;1.00;;;22.80;45.50;;;;;;5014292;28;20033;-50
2023/10/14 11:13:13;;;;;;;3.15;1.00;;;22.80;45.40;;;;;;5014696;28;20034;-51
2023/10/14 11:15:40;;;;;;;3.55;1.10;;;22.80;45.40;;;;;;5014304;28;20054;-54
2023/10/14 11:18:09;;;;;;;2.45;0.93;;;22.80;45.40;;;;;;5014297;28;20026;-53
2023/10/14 11:20:41;;;;;;;2.33;0.80;;;22.80;45.40;;;;;;5014838;28;20029;-53
2023/10/14 11:23:11;;;;;;;4.05;1.42;;;22.80;45.30;;;;;;5014574;28;20121;-53
2023/10/14 11:25:42;;;;;;;3.45;1.10;;;22.80;45.30;;;;;;5012944;28;20022;-54
2023/10/14 11:28:12;;;;;;;2.88;0.98;;;22.80;45.30;;;;;;5014585;28;20070;-49
2023/10/14 11:30:43;;;;;;;3.08;0.90;;;22.80;45.20;;;;;;5014819;28;20084;-50
2023/10/14 11:33:14;;;;;;;3.30;0.85;;;22.80;45.20;;;;;;5015383;28;20298;-50
2023/10/14 11:35:40;;;;;;;4.18;0.90;;;22.80;45.20;;;;;;5013824;28;20034;-52
2023/10/14 11:38:12;;;;;;;2.20;0.98;;;22.80;45.20;;;;;;5014505;28;20037;-50
2023/10/14 11:40:45;;;;;;;4.38;1.30;;;22.80;45.20;;;;;;5014664;28;20029;-49
2023/10/14 11:43:11;;;;;;;3.00;1.00;;;22.80;45.20;;;;;;5014298;28;20143;-52
2023/10/14 11:45:43;;;;;;;4.85;1.25;;;22.80;45.00;;;;;;5014420;28;20053;-48
2023/10/14 11:48:30;;;;;;;2.10;0.70;;;22.80;44.90;;;;;;5014518;28;20120;-53
2023/10/14 11:51:02;;;;;;;1.45;0.73;;;22.80;44.70;;;;;;5013972;28;20113;-51
2023/10/14 11:53:32;;;;;;;2.42;0.90;;;22.80;44.60;;;;;;5014479;28;20041;-52
2023/10/14 11:56:04;;;;;;;3.65;0.90;;;22.80;44.50;;;;;;5014214;28;20088;-52
2023/10/14 11:58:37;;;;;;;1.58;0.68;;;22.80;44.40;;;;;;5014130;28;20034;-54
2023/10/14 12:01:05;;;;;;;2.25;1.00;;;22.80;44.30;;;;;;4992374;28;20356;-62
2023/10/14 12:03:32;;;;;;;2.10;0.98;;;22.80;44.20;;;;;;5009008;28;20374;-62
2023/10/14 12:06:00;;;;;;;3.13;0.85;;;22.80;44.40;;;;;;5013274;28;20041;-62
2023/10/14 12:08:33;;;;;;;2.40;0.98;;;22.80;44.70;;;;;;5007777;28;20340;-61
2023/10/14 12:10:59;;;;;;;1.77;0.80;;;22.80;44.80;;;;;;5011828;28;20042;-62
2023/10/14 12:13:26;;;;;;;2.33;0.85;;;23.00;44.80;;;;;;5011117;28;20029;-64
2023/10/14 12:15:52;;;;;;;3.28;0.82;;;23.00;44.60;;;;;;5010860;28;20100;-62
2023/10/14 12:18:20;;;;;;;2.47;0.80;;;23.10;44.40;;;;;;5009414;28;20036;-62
2023/10/14 12:20:48;;;;;;;3.53;1.05;;;23.30;44.30;;;;;;5012691;28;20262;-63
2023/10/14 12:23:19;;;;;;;2.38;0.80;;;23.40;44.00;;;;;;5012827;28;20045;-62
2023/10/14 12:25:49;;;;;;;6.03;1.30;;;23.50;43.70;;;;;;5013054;28;20067;-63
2023/10/14 12:28:24;;;;;;;2.13;0.98;;;23.60;43.50;;;;;;5013659;28;20026;-64
2023/10/14 12:30:56;;;;;;;1.98;0.90;;;23.70;43.40;;;;;;5014345;28;20512;-65
2023/10/14 12:33:24;;;;;;;3.70;1.13;;;23.80;43.20;;;;;;5012785;28;20026;-63
2023/10/14 12:35:53;;;;;;;4.32;1.10;;;23.90;43.00;;;;;;5015326;28;20045;-66
2023/10/14 12:38:20;;;;;;;3.55;1.00;;;24.00;42.80;;;;;;5013780;28;20092;-64
2023/10/14 12:40:49;;;;;;;2.80;0.90;;;24.10;42.70;;;;;;5016236;28;20404;-65
2023/10/14 12:43:17;;;;;;;3.58;1.10;;;24.10;42.70;;;;;;5016210;28;20429;-63
2023/10/14 12:45:43;;;;;;;4.05;1.10;;;24.20;42.80;;;;;;5014741;28;20404;-64
2023/10/14 12:48:09;;;;;;;2.10;1.08;;;24.20;43.40;;;;;;5009527;28;20121;-63
2023/10/14 12:50:41;;;;;;;2.17;0.95;;;24.30;42.80;;;;;;5015217;28;20029;-65
2023/10/14 12:53:09;;;;;;;2.70;1.00;;;24.30;42.70;;;;;;5010671;28;20405;-64
2023/10/14 12:55:36;;;;;;;2.53;1.20;;;24.40;42.60;;;;;;5017953;28;20128;-66
2023/10/14 12:58:02;;;;;;;2.38;0.80;;;24.40;42.40;;;;;;5011222;28;20407;-65
2023/10/14 13:00:29;;;;;;;3.05;0.90;;;24.50;42.30;;;;;;5016034;28;20044;-65
2023/10/14 13:03:00;;;;;;;2.67;1.00;;;24.50;42.20;;;;;;5015907;28;20108;-62
2023/10/14 13:05:27;;;;;;;2.92;1.27;;;24.60;42.10;;;;;;5009122;28;20500;-61
2023/10/14 13:07:55;;;;;;;3.72;1.10;;;24.60;42.10;;;;;;5015155;28;20092;-62
2023/10/14 13:10:22;;;;;;;2.92;1.10;;;24.60;42.10;;;;;;5011521;28;20060;-63
2023/10/14 13:12:50;;;;;;;3.53;1.10;;;24.70;42.20;;;;;;5015542;28;20349;-61
2023/10/14 13:15:25;;;;;;;5.10;1.17;;;24.70;42.10;;;;;;5010951;28;20046;-56
2023/10/14 13:18:02;;;;;;;3.35;1.10;;;24.70;42.10;;;;;;5014710;28;20026;-57
2023/10/14 13:20:29;;;;;;;2.92;1.15;;;24.80;42.20;;;;;;5015016;28;20448;-57
2023/10/14 13:22:58;;;;;;;3.30;1.15;;;24.70;42.30;;;;;;5012376;28;20042;-57
2023/10/14 13:25:24;;;;;;;2.95;0.90;;;24.70;42.50;;;;;;5014709;28;20018;-56
2023/10/14 13:27:51;;;;;;;1.83;0.80;;;24.70;42.70;;;;;;5014769;28;20108;-57
2023/10/14 13:30:24;;;;;;;2.85;1.10;;;24.60;42.90;;;;;;5014435;28;20021;-57
2023/10/14 13:32:54;;;;;;;5.22;1.00;;;24.60;43.20;;;;;;5013804;28;20376;-56
2023/10/14 13:35:20;;;;;;;6.32;0.90;;;24.50;43.40;;;;;;5012464;28;20054;-65
2023/10/14 13:37:47;;;;;;;2.65;0.90;;;24.40;43.50;;;;;;5013695;28;20034;-62
2023/10/14 13:40:23;;;;;;;3.08;0.73;;;24.30;43.70;;;;;;5009033;28;20096;-62